sensor_id;sensor_type;location;lat;lon;timestamp;P1;durP1;ratioP1;P2;durP2;ratioP2
71806;SDS011;59655;42.590;23.364;2024-02-04T00:00:13;5.13;;;2.50;;
71806;SDS011;59655;42.590;23.364;2024-02-04T00:02:39;4.22;;;2.63;;
71806;SDS011;59655;42.590;23.364;2024-02-04T00:05:05;5.72;;;3.30;;
71806;SDS011;59655;42.590;23.364;2024-02-04T00:07:30;5.25;;;2.92;;
71806;SDS011;59655;42.590;23.364;2024-02-04T00:09:56;5.55;;;3.20;;
71806;SDS011;59655;42.590;23.364;2024-02-04T00:12:21;4.57;;;2.80;;
71806;SDS011;59655;42.590;23.364;2024-02-04T00:14:47;4.95;;;2.75;;
71806;SDS011;59655;42.590;23.364;2024-02-04T00:17:14;4.70;;;2.55;;
71806;SDS011;59655;42.590;23.364;2024-02-04T00:19:40;5.20;;;3.20;;
71806;SDS011;59655;42.590;23.364;2024-02-04T00:22:06;7.03;;;2.70;;
71806;SDS011;59655;42.590;23.364;2024-02-04T00:24:32;6.53;;;3.00;;
71806;SDS011;59655;42.590;23.364;2024-02-04T00:26:57;6.25;;;2.80;;
71806;SDS011;59655;42.590;23.364;2024-02-04T00:29:22;6.90;;;3.30;;
71806;SDS011;59655;42.590;23.364;2024-02-04T00:31:47;4.88;;;3.25;;
71806;SDS011;59655;42.590;23.364;2024-02-04T00:34:13;4.93;;;2.60;;
71806;SDS011;59655;42.590;23.364;2024-02-04T00:36:38;5.07;;;3.03;;
71806;SDS011;59655;42.590;23.364;2024-02-04T00:39:03;5.65;;;2.80;;
71806;SDS011;59655;42.590;23.364;2024-02-04T00:41:30;4.07;;;2.30;;
71806;SDS011;59655;42.590;23.364;2024-02-04T00:43:55;5.78;;;3.20;;
71806;SDS011;59655;42.590;23.364;2024-02-04T00:46:20;7.55;;;3.35;;
71806;SDS011;59655;42.590;23.364;2024-02-04T00:48:46;5.57;;;3.30;;
71806;SDS011;59655;42.590;23.364;2024-02-04T00:51:11;4.13;;;2.90;;
71806;SDS011;59655;42.590;23.364;2024-02-04T00:53:38;5.07;;;3.00;;
71806;SDS011;59655;42.590;23.364;2024-02-04T00:56:03;6.05;;;3.30;;
71806;SDS011;59655;42.590;23.364;2024-02-04T00:58:29;5.40;;;3.30;;
71806;SDS011;59655;42.590;23.364;2024-02-04T01:00:55;7.35;;;4.15;;
71806;SDS011;59655;42.590;23.364;2024-02-04T01:03:20;19.83;;;14.30;;
71806;SDS011;59655;42.590;23.364;2024-02-04T01:05:45;9.93;;;6.30;;
71806;SDS011;59655;42.590;23.364;2024-02-04T01:08:11;8.35;;;4.32;;
71806;SDS011;59655;42.590;23.364;2024-02-04T01:10:36;10.10;;;6.30;;
71806;SDS011;59655;42.590;23.364;2024-02-04T01:13:02;9.38;;;4.53;;
71806;SDS011;59655;42.590;23.364;2024-02-04T01:15:28;6.60;;;3.42;;
71806;SDS011;59655;42.590;23.364;2024-02-04T01:17:54;5.68;;;3.60;;
71806;SDS011;59655;42.590;23.364;2024-02-04T01:20:19;5.63;;;3.37;;
71806;SDS011;59655;42.590;23.364;2024-02-04T01:22:44;6.18;;;2.78;;
71806;SDS011;59655;42.590;23.364;2024-02-04T01:25:10;4.60;;;2.53;;
71806;SDS011;59655;42.590;23.364;2024-02-04T01:27:35;5.65;;;2.33;;
71806;SDS011;59655;42.590;23.364;2024-02-04T01:30:00;6.03;;;3.50;;
71806;SDS011;59655;42.590;23.364;2024-02-04T01:32:26;5.18;;;2.55;;
71806;SDS011;59655;42.590;23.364;2024-02-04T01:34:51;5.55;;;3.25;;
71806;SDS011;59655;42.590;23.364;2024-02-04T01:37:17;6.72;;;2.83;;
71806;SDS011;59655;42.590;23.364;2024-02-04T01:39:42;6.25;;;3.20;;
71806;SDS011;59655;42.590;23.364;2024-02-04T01:42:07;6.95;;;3.72;;
71806;SDS011;59655;42.590;23.364;2024-02-04T01:44:33;3.63;;;2.00;;
71806;SDS011;59655;42.590;23.364;2024-02-04T01:46:58;3.30;;;1.92;;
71806;SDS011;59655;42.590;23.364;2024-02-04T01:49:24;3.28;;;2.00;;
71806;SDS011;59655;42.590;23.364;2024-02-04T01:51:50;4.22;;;2.15;;
71806;SDS011;59655;42.590;23.364;2024-02-04T01:54:16;5.30;;;3.63;;
71806;SDS011;59655;42.590;23.364;2024-02-04T01:56:42;4.50;;;2.97;;
71806;SDS011;59655;42.590;23.364;2024-02-04T01:59:11;6.97;;;3.10;;
71806;SDS011;59655;42.590;23.364;2024-02-04T02:01:38;8.52;;;4.20;;
71806;SDS011;59655;42.590;23.364;2024-02-04T02:04:04;8.30;;;4.43;;
71806;SDS011;59655;42.590;23.364;2024-02-04T02:06:30;6.53;;;3.08;;
71806;SDS011;59655;42.590;23.364;2024-02-04T02:08:56;3.80;;;2.30;;
71806;SDS011;59655;42.590;23.364;2024-02-04T02:11:37;7.47;;;4.35;;
71806;SDS011;59655;42.590;23.364;2024-02-04T02:14:05;4.68;;;2.03;;
71806;SDS011;59655;42.590;23.364;2024-02-04T02:16:38;5.35;;;2.10;;
71806;SDS011;59655;42.590;23.364;2024-02-04T02:19:06;3.88;;;2.30;;
71806;SDS011;59655;42.590;23.364;2024-02-04T02:21:56;5.38;;;2.70;;
71806;SDS011;59655;42.590;23.364;2024-02-04T02:26:49;6.23;;;3.10;;
71806;SDS011;59655;42.590;23.364;2024-02-04T02:29:15;3.97;;;2.30;;
71806;SDS011;59655;42.590;23.364;2024-02-04T02:31:41;5.72;;;3.17;;
71806;SDS011;59655;42.590;23.364;2024-02-04T02:34:07;7.28;;;4.15;;
71806;SDS011;59655;42.590;23.364;2024-02-04T02:39:17;10.35;;;6.00;;
71806;SDS011;59655;42.590;23.364;2024-02-04T02:41:47;8.10;;;3.90;;
71806;SDS011;59655;42.590;23.364;2024-02-04T02:44:16;7.65;;;5.90;;
71806;SDS011;59655;42.590;23.364;2024-02-04T02:46:42;8.35;;;5.30;;
71806;SDS011;59655;42.590;23.364;2024-02-04T02:49:08;7.68;;;4.85;;
71806;SDS011;59655;42.590;23.364;2024-02-04T02:51:33;11.40;;;8.05;;
71806;SDS011;59655;42.590;23.364;2024-02-04T02:53:59;9.23;;;5.55;;
71806;SDS011;59655;42.590;23.364;2024-02-04T02:56:24;9.88;;;5.10;;
71806;SDS011;59655;42.590;23.364;2024-02-04T02:58:49;6.70;;;3.72;;
71806;SDS011;59655;42.590;23.364;2024-02-04T03:01:15;6.80;;;2.90;;
71806;SDS011;59655;42.590;23.364;2024-02-04T03:03:40;6.43;;;3.08;;
71806;SDS011;59655;42.590;23.364;2024-02-04T03:06:05;5.07;;;2.90;;
71806;SDS011;59655;42.590;23.364;2024-02-04T03:08:31;6.00;;;3.58;;
71806;SDS011;59655;42.590;23.364;2024-02-04T03:10:56;5.53;;;3.13;;
71806;SDS011;59655;42.590;23.364;2024-02-04T03:13:22;4.55;;;3.08;;
71806;SDS011;59655;42.590;23.364;2024-02-04T03:15:47;5.88;;;2.72;;
71806;SDS011;59655;42.590;23.364;2024-02-04T03:18:13;6.18;;;2.72;;
71806;SDS011;59655;42.590;23.364;2024-02-04T03:20:38;4.60;;;2.75;;
71806;SDS011;59655;42.590;23.364;2024-02-04T03:23:03;4.47;;;2.40;;
71806;SDS011;59655;42.590;23.364;2024-02-04T03:25:29;5.03;;;2.72;;
71806;SDS011;59655;42.590;23.364;2024-02-04T03:27:54;5.30;;;2.75;;
71806;SDS011;59655;42.590;23.364;2024-02-04T03:30:20;7.25;;;3.90;;
71806;SDS011;59655;42.590;23.364;2024-02-04T03:32:45;6.60;;;4.30;;
71806;SDS011;59655;42.590;23.364;2024-02-04T03:35:11;13.40;;;8.13;;
71806;SDS011;59655;42.590;23.364;2024-02-04T03:37:36;6.72;;;4.63;;
71806;SDS011;59655;42.590;23.364;2024-02-04T03:40:01;5.38;;;2.75;;
71806;SDS011;59655;42.590;23.364;2024-02-04T03:42:27;4.88;;;3.08;;
71806;SDS011;59655;42.590;23.364;2024-02-04T03:44:53;7.80;;;5.05;;
71806;SDS011;59655;42.590;23.364;2024-02-04T03:47:19;4.28;;;2.78;;
71806;SDS011;59655;42.590;23.364;2024-02-04T03:49:44;4.53;;;2.90;;
71806;SDS011;59655;42.590;23.364;2024-02-04T03:52:09;4.93;;;3.17;;
71806;SDS011;59655;42.590;23.364;2024-02-04T03:54:34;8.07;;;4.25;;
71806;SDS011;59655;42.590;23.364;2024-02-04T03:57:00;1.38;;;0.70;;
71806;SDS011;59655;42.590;23.364;2024-02-04T03:59:25;2.33;;;0.65;;
71806;SDS011;59655;42.590;23.364;2024-02-04T04:01:51;1.48;;;0.60;;
71806;SDS011;59655;42.590;23.364;2024-02-04T04:04:18;1.33;;;0.70;;
71806;SDS011;59655;42.590;23.364;2024-02-04T04:06:44;1.00;;;0.68;;
71806;SDS011;59655;42.590;23.364;2024-02-04T04:09:10;1.58;;;0.70;;
71806;SDS011;59655;42.590;23.364;2024-02-04T04:11:35;1.73;;;1.00;;
71806;SDS011;59655;42.590;23.364;2024-02-04T04:14:01;2.78;;;1.20;;
71806;SDS011;59655;42.590;23.364;2024-02-04T04:16:26;1.83;;;0.98;;
71806;SDS011;59655;42.590;23.364;2024-02-04T04:18:51;2.10;;;1.10;;
71806;SDS011;59655;42.590;23.364;2024-02-04T04:21:17;1.60;;;0.98;;
71806;SDS011;59655;42.590;23.364;2024-02-04T04:23:42;1.90;;;0.70;;
71806;SDS011;59655;42.590;23.364;2024-02-04T04:26:08;1.30;;;0.80;;
71806;SDS011;59655;42.590;23.364;2024-02-04T04:28:33;2.00;;;1.00;;
71806;SDS011;59655;42.590;23.364;2024-02-04T04:30:59;2.13;;;1.20;;
71806;SDS011;59655;42.590;23.364;2024-02-04T04:33:24;2.20;;;1.00;;
71806;SDS011;59655;42.590;23.364;2024-02-04T04:35:50;2.07;;;0.90;;
71806;SDS011;59655;42.590;23.364;2024-02-04T04:38:15;2.30;;;1.30;;
71806;SDS011;59655;42.590;23.364;2024-02-04T04:40:40;1.85;;;0.98;;
71806;SDS011;59655;42.590;23.364;2024-02-04T04:43:06;1.85;;;0.90;;
71806;SDS011;59655;42.590;23.364;2024-02-04T04:45:31;2.20;;;1.27;;
71806;SDS011;59655;42.590;23.364;2024-02-04T04:47:57;2.65;;;1.15;;
71806;SDS011;59655;42.590;23.364;2024-02-04T04:50:22;1.90;;;1.17;;
71806;SDS011;59655;42.590;23.364;2024-02-04T04:52:48;2.00;;;1.20;;
71806;SDS011;59655;42.590;23.364;2024-02-04T04:55:13;2.20;;;1.40;;
71806;SDS011;59655;42.590;23.364;2024-02-04T04:57:39;3.58;;;1.50;;
71806;SDS011;59655;42.590;23.364;2024-02-04T05:00:04;3.38;;;1.58;;
71806;SDS011;59655;42.590;23.364;2024-02-04T05:02:32;5.45;;;1.50;;
71806;SDS011;59655;42.590;23.364;2024-02-04T05:04:58;1.92;;;1.30;;
71806;SDS011;59655;42.590;23.364;2024-02-04T05:07:23;2.50;;;1.67;;
71806;SDS011;59655;42.590;23.364;2024-02-04T05:09:48;2.95;;;1.92;;
71806;SDS011;59655;42.590;23.364;2024-02-04T05:12:13;4.35;;;2.40;;
71806;SDS011;59655;42.590;23.364;2024-02-04T05:14:39;2.95;;;1.95;;
71806;SDS011;59655;42.590;23.364;2024-02-04T05:17:04;2.42;;;1.70;;
71806;SDS011;59655;42.590;23.364;2024-02-04T05:19:30;2.78;;;1.80;;
71806;SDS011;59655;42.590;23.364;2024-02-04T05:21:56;3.10;;;1.90;;
71806;SDS011;59655;42.590;23.364;2024-02-04T05:24:21;2.83;;;1.60;;
71806;SDS011;59655;42.590;23.364;2024-02-04T05:26:46;2.65;;;1.25;;
71806;SDS011;59655;42.590;23.364;2024-02-04T05:29:12;3.33;;;1.48;;
71806;SDS011;59655;42.590;23.364;2024-02-04T05:31:41;3.40;;;1.00;;
71806;SDS011;59655;42.590;23.364;2024-02-04T05:34:07;1.80;;;1.10;;
71806;SDS011;59655;42.590;23.364;2024-02-04T05:36:33;1.90;;;1.00;;
71806;SDS011;59655;42.590;23.364;2024-02-04T05:39:08;2.30;;;0.90;;
71806;SDS011;59655;42.590;23.364;2024-02-04T05:41:37;3.55;;;1.30;;
71806;SDS011;59655;42.590;23.364;2024-02-04T05:44:02;3.25;;;1.08;;
71806;SDS011;59655;42.590;23.364;2024-02-04T05:46:28;3.10;;;1.38;;
71806;SDS011;59655;42.590;23.364;2024-02-04T05:48:53;2.38;;;1.10;;
71806;SDS011;59655;42.590;23.364;2024-02-04T05:51:19;1.58;;;0.90;;
71806;SDS011;59655;42.590;23.364;2024-02-04T05:53:44;2.60;;;1.50;;
71806;SDS011;59655;42.590;23.364;2024-02-04T05:56:09;2.90;;;1.40;;
71806;SDS011;59655;42.590;23.364;2024-02-04T05:58:35;2.50;;;1.40;;
71806;SDS011;59655;42.590;23.364;2024-02-04T06:01:00;2.92;;;1.35;;
71806;SDS011;59655;42.590;23.364;2024-02-04T06:03:25;2.50;;;1.63;;
71806;SDS011;59655;42.590;23.364;2024-02-04T06:05:51;3.30;;;1.67;;
71806;SDS011;59655;42.590;23.364;2024-02-04T06:08:16;3.45;;;1.80;;
71806;SDS011;59655;42.590;23.364;2024-02-04T06:10:41;2.95;;;1.50;;
71806;SDS011;59655;42.590;23.364;2024-02-04T06:13:07;2.67;;;1.60;;
71806;SDS011;59655;42.590;23.364;2024-02-04T06:15:32;4.78;;;3.00;;
71806;SDS011;59655;42.590;23.364;2024-02-04T06:18:00;2.75;;;1.70;;
71806;SDS011;59655;42.590;23.364;2024-02-04T06:20:26;3.72;;;1.80;;
71806;SDS011;59655;42.590;23.364;2024-02-04T06:22:51;3.15;;;1.60;;
71806;SDS011;59655;42.590;23.364;2024-02-04T06:25:16;2.80;;;1.75;;
71806;SDS011;59655;42.590;23.364;2024-02-04T06:27:42;2.75;;;1.52;;
71806;SDS011;59655;42.590;23.364;2024-02-04T06:30:07;2.72;;;1.40;;
71806;SDS011;59655;42.590;23.364;2024-02-04T06:32:33;3.03;;;1.52;;
71806;SDS011;59655;42.590;23.364;2024-02-04T06:34:58;2.33;;;1.25;;
71806;SDS011;59655;42.590;23.364;2024-02-04T06:37:24;2.30;;;1.13;;
71806;SDS011;59655;42.590;23.364;2024-02-04T06:39:50;1.77;;;1.00;;
71806;SDS011;59655;42.590;23.364;2024-02-04T06:42:15;1.73;;;0.80;;
71806;SDS011;59655;42.590;23.364;2024-02-04T06:44:44;2.22;;;1.10;;
71806;SDS011;59655;42.590;23.364;2024-02-04T06:47:10;1.80;;;0.90;;
71806;SDS011;59655;42.590;23.364;2024-02-04T06:49:37;2.05;;;1.20;;
71806;SDS011;59655;42.590;23.364;2024-02-04T06:52:03;1.55;;;0.90;;
71806;SDS011;59655;42.590;23.364;2024-02-04T06:54:28;1.75;;;0.80;;
71806;SDS011;59655;42.590;23.364;2024-02-04T06:56:54;1.85;;;0.90;;
71806;SDS011;59655;42.590;23.364;2024-02-04T06:59:19;4.35;;;1.20;;
71806;SDS011;59655;42.590;23.364;2024-02-04T07:01:44;1.70;;;0.85;;
71806;SDS011;59655;42.590;23.364;2024-02-04T07:04:10;2.78;;;1.10;;
71806;SDS011;59655;42.590;23.364;2024-02-04T07:06:35;2.17;;;0.90;;
71806;SDS011;59655;42.590;23.364;2024-02-04T07:09:01;1.90;;;0.90;;
71806;SDS011;59655;42.590;23.364;2024-02-04T07:11:26;1.50;;;0.90;;
71806;SDS011;59655;42.590;23.364;2024-02-04T07:13:52;1.98;;;1.13;;
71806;SDS011;59655;42.590;23.364;2024-02-04T07:16:23;1.38;;;0.88;;
71806;SDS011;59655;42.590;23.364;2024-02-04T07:18:49;2.03;;;1.02;;
71806;SDS011;59655;42.590;23.364;2024-02-04T07:21:15;1.63;;;0.68;;
71806;SDS011;59655;42.590;23.364;2024-02-04T07:23:40;1.00;;;0.60;;
71806;SDS011;59655;42.590;23.364;2024-02-04T07:26:05;1.10;;;0.80;;
71806;SDS011;59655;42.590;23.364;2024-02-04T07:28:31;0.85;;;0.50;;
71806;SDS011;59655;42.590;23.364;2024-02-04T07:30:56;1.48;;;0.70;;
71806;SDS011;59655;42.590;23.364;2024-02-04T07:33:21;0.57;;;0.40;;
71806;SDS011;59655;42.590;23.364;2024-02-04T07:35:47;1.55;;;0.50;;
71806;SDS011;59655;42.590;23.364;2024-02-04T07:38:12;0.95;;;0.40;;
71806;SDS011;59655;42.590;23.364;2024-02-04T07:40:38;0.82;;;0.40;;
71806;SDS011;59655;42.590;23.364;2024-02-04T07:43:03;1.77;;;0.60;;
71806;SDS011;59655;42.590;23.364;2024-02-04T07:45:28;1.60;;;0.60;;
71806;SDS011;59655;42.590;23.364;2024-02-04T07:47:54;0.82;;;0.40;;
71806;SDS011;59655;42.590;23.364;2024-02-04T07:50:19;1.45;;;0.50;;
71806;SDS011;59655;42.590;23.364;2024-02-04T07:52:45;0.93;;;0.50;;
71806;SDS011;59655;42.590;23.364;2024-02-04T07:55:10;1.08;;;0.50;;
71806;SDS011;59655;42.590;23.364;2024-02-04T07:57:36;0.43;;;0.30;;
71806;SDS011;59655;42.590;23.364;2024-02-04T08:00:01;0.70;;;0.35;;
71806;SDS011;59655;42.590;23.364;2024-02-04T08:02:30;0.55;;;0.30;;
71806;SDS011;59655;42.590;23.364;2024-02-04T08:04:55;0.75;;;0.32;;
71806;SDS011;59655;42.590;23.364;2024-02-04T08:07:20;1.13;;;0.40;;
71806;SDS011;59655;42.590;23.364;2024-02-04T08:09:46;0.65;;;0.35;;
71806;SDS011;59655;42.590;23.364;2024-02-04T08:12:11;1.13;;;0.50;;
71806;SDS011;59655;42.590;23.364;2024-02-04T08:14:37;0.60;;;0.30;;
71806;SDS011;59655;42.590;23.364;2024-02-04T08:17:02;1.27;;;0.60;;
71806;SDS011;59655;42.590;23.364;2024-02-04T08:19:28;1.40;;;0.40;;
71806;SDS011;59655;42.590;23.364;2024-02-04T08:21:53;1.02;;;0.32;;
71806;SDS011;59655;42.590;23.364;2024-02-04T08:24:18;0.85;;;0.32;;
71806;SDS011;59655;42.590;23.364;2024-02-04T08:26:44;0.20;;;0.20;;
71806;SDS011;59655;42.590;23.364;2024-02-04T08:29:10;0.60;;;0.20;;
71806;SDS011;59655;42.590;23.364;2024-02-04T08:31:36;1.42;;;0.40;;
71806;SDS011;59655;42.590;23.364;2024-02-04T08:34:02;1.38;;;0.65;;
71806;SDS011;59655;42.590;23.364;2024-02-04T08:36:28;1.98;;;0.60;;
71806;SDS011;59655;42.590;23.364;2024-02-04T08:41:21;0.80;;;0.40;;
71806;SDS011;59655;42.590;23.364;2024-02-04T08:43:46;1.75;;;0.73;;
71806;SDS011;59655;42.590;23.364;2024-02-04T08:46:11;0.70;;;0.40;;
71806;SDS011;59655;42.590;23.364;2024-02-04T08:48:37;1.25;;;0.35;;
71806;SDS011;59655;42.590;23.364;2024-02-04T08:51:02;2.45;;;0.70;;
71806;SDS011;59655;42.590;23.364;2024-02-04T08:53:27;1.40;;;0.68;;
71806;SDS011;59655;42.590;23.364;2024-02-04T08:55:53;3.58;;;0.70;;
71806;SDS011;59655;42.590;23.364;2024-02-04T08:58:18;1.88;;;0.63;;
71806;SDS011;59655;42.590;23.364;2024-02-04T09:00:43;0.70;;;0.30;;
71806;SDS011;59655;42.590;23.364;2024-02-04T09:03:09;0.65;;;0.40;;
71806;SDS011;59655;42.590;23.364;2024-02-04T09:05:34;0.75;;;0.30;;
71806;SDS011;59655;42.590;23.364;2024-02-04T09:07:59;1.13;;;0.68;;
71806;SDS011;59655;42.590;23.364;2024-02-04T09:10:26;0.57;;;0.40;;
71806;SDS011;59655;42.590;23.364;2024-02-04T09:12:51;2.63;;;0.77;;
71806;SDS011;59655;42.590;23.364;2024-02-04T09:15:17;1.15;;;0.60;;
71806;SDS011;59655;42.590;23.364;2024-02-04T09:17:42;0.40;;;0.30;;
71806;SDS011;59655;42.590;23.364;2024-02-04T09:20:08;1.33;;;0.60;;
71806;SDS011;59655;42.590;23.364;2024-02-04T09:22:33;0.80;;;0.40;;
71806;SDS011;59655;42.590;23.364;2024-02-04T09:24:59;1.52;;;0.60;;
71806;SDS011;59655;42.590;23.364;2024-02-04T09:27:25;2.45;;;0.95;;
71806;SDS011;59655;42.590;23.364;2024-02-04T09:29:51;1.33;;;0.77;;
71806;SDS011;59655;42.590;23.364;2024-02-04T09:32:16;0.98;;;0.57;;
71806;SDS011;59655;42.590;23.364;2024-02-04T09:34:42;0.55;;;0.38;;
71806;SDS011;59655;42.590;23.364;2024-02-04T09:37:07;2.00;;;0.30;;
71806;SDS011;59655;42.590;23.364;2024-02-04T09:39:33;2.33;;;0.60;;
71806;SDS011;59655;42.590;23.364;2024-02-04T09:41:58;1.70;;;0.50;;
71806;SDS011;59655;42.590;23.364;2024-02-04T09:44:24;1.30;;;0.73;;
71806;SDS011;59655;42.590;23.364;2024-02-04T09:46:50;2.47;;;0.88;;
71806;SDS011;59655;42.590;23.364;2024-02-04T09:49:17;6.15;;;1.08;;
71806;SDS011;59655;42.590;23.364;2024-02-04T09:51:42;1.63;;;0.85;;
71806;SDS011;59655;42.590;23.364;2024-02-04T09:54:09;2.45;;;1.00;;
71806;SDS011;59655;42.590;23.364;2024-02-04T09:56:36;1.42;;;0.77;;
71806;SDS011;59655;42.590;23.364;2024-02-04T09:59:03;2.40;;;0.95;;
71806;SDS011;59655;42.590;23.364;2024-02-04T10:01:30;2.08;;;0.90;;
71806;SDS011;59655;42.590;23.364;2024-02-04T10:03:56;2.30;;;0.93;;
71806;SDS011;59655;42.590;23.364;2024-02-04T10:06:22;2.10;;;1.02;;
71806;SDS011;59655;42.590;23.364;2024-02-04T10:08:47;2.20;;;0.82;;
71806;SDS011;59655;42.590;23.364;2024-02-04T10:11:13;2.13;;;0.90;;
71806;SDS011;59655;42.590;23.364;2024-02-04T10:13:45;2.97;;;1.48;;
71806;SDS011;59655;42.590;23.364;2024-02-04T10:16:11;1.98;;;1.05;;
71806;SDS011;59655;42.590;23.364;2024-02-04T10:18:40;4.20;;;1.40;;
71806;SDS011;59655;42.590;23.364;2024-02-04T10:21:14;2.33;;;1.20;;
71806;SDS011;59655;42.590;23.364;2024-02-04T10:23:49;1.95;;;1.10;;
71806;SDS011;59655;42.590;23.364;2024-02-04T10:26:16;2.05;;;1.05;;
71806;SDS011;59655;42.590;23.364;2024-02-04T10:28:44;4.25;;;1.20;;
71806;SDS011;59655;42.590;23.364;2024-02-04T10:31:10;2.85;;;1.40;;
71806;SDS011;59655;42.590;23.364;2024-02-04T10:33:36;3.20;;;1.10;;
71806;SDS011;59655;42.590;23.364;2024-02-04T10:36:02;1.77;;;1.00;;
71806;SDS011;59655;42.590;23.364;2024-02-04T10:38:28;3.15;;;1.20;;
71806;SDS011;59655;42.590;23.364;2024-02-04T10:40:54;1.95;;;1.00;;
71806;SDS011;59655;42.590;23.364;2024-02-04T10:43:20;2.75;;;1.35;;
71806;SDS011;59655;42.590;23.364;2024-02-04T10:45:46;3.65;;;1.33;;
71806;SDS011;59655;42.590;23.364;2024-02-04T10:48:13;3.15;;;1.17;;
71806;SDS011;59655;42.590;23.364;2024-02-04T10:50:44;4.10;;;1.63;;
71806;SDS011;59655;42.590;23.364;2024-02-04T10:53:13;14.73;;;6.43;;
71806;SDS011;59655;42.590;23.364;2024-02-04T10:55:40;50.17;;;19.52;;
71806;SDS011;59655;42.590;23.364;2024-02-04T10:58:07;3.80;;;1.17;;
71806;SDS011;59655;42.590;23.364;2024-02-04T11:00:34;2.90;;;1.17;;
71806;SDS011;59655;42.590;23.364;2024-02-04T11:03:00;2.05;;;1.00;;
71806;SDS011;59655;42.590;23.364;2024-02-04T11:05:26;1.63;;;0.80;;
71806;SDS011;59655;42.590;23.364;2024-02-04T11:07:54;2.78;;;0.80;;
71806;SDS011;59655;42.590;23.364;2024-02-04T11:10:20;2.60;;;1.00;;
71806;SDS011;59655;42.590;23.364;2024-02-04T11:12:45;1.92;;;0.70;;
71806;SDS011;59655;42.590;23.364;2024-02-04T11:15:12;2.33;;;0.90;;
71806;SDS011;59655;42.590;23.364;2024-02-04T11:25:58;3.65;;;1.08;;
71806;SDS011;59655;42.590;23.364;2024-02-04T11:28:24;4.00;;;1.20;;
71806;SDS011;59655;42.590;23.364;2024-02-04T11:30:51;3.50;;;1.25;;
71806;SDS011;59655;42.590;23.364;2024-02-04T11:33:20;3.53;;;1.02;;
71806;SDS011;59655;42.590;23.364;2024-02-04T11:35:46;4.68;;;1.20;;
71806;SDS011;59655;42.590;23.364;2024-02-04T11:38:16;2.17;;;1.08;;
71806;SDS011;59655;42.590;23.364;2024-02-04T11:40:42;1.98;;;1.05;;
71806;SDS011;59655;42.590;23.364;2024-02-04T11:43:10;1.88;;;0.93;;
71806;SDS011;59655;42.590;23.364;2024-02-04T11:45:39;3.90;;;1.73;;
71806;SDS011;59655;42.590;23.364;2024-02-04T11:48:06;2.90;;;1.10;;
71806;SDS011;59655;42.590;23.364;2024-02-04T11:50:35;1.83;;;0.80;;
71806;SDS011;59655;42.590;23.364;2024-02-04T11:53:12;2.42;;;0.82;;
71806;SDS011;59655;42.590;23.364;2024-02-04T11:55:39;1.60;;;0.80;;
71806;SDS011;59655;42.590;23.364;2024-02-04T11:58:06;2.38;;;1.10;;
71806;SDS011;59655;42.590;23.364;2024-02-04T12:00:32;5.55;;;1.20;;
71806;SDS011;59655;42.590;23.364;2024-02-04T12:03:02;2.92;;;1.40;;
71806;SDS011;59655;42.590;23.364;2024-02-04T12:05:30;3.92;;;1.30;;
71806;SDS011;59655;42.590;23.364;2024-02-04T12:08:03;2.25;;;1.10;;
71806;SDS011;59655;42.590;23.364;2024-02-04T12:10:30;2.25;;;1.05;;
71806;SDS011;59655;42.590;23.364;2024-02-04T12:13:00;4.82;;;1.80;;
71806;SDS011;59655;42.590;23.364;2024-02-04T12:15:27;2.20;;;0.88;;
71806;SDS011;59655;42.590;23.364;2024-02-04T12:17:53;3.85;;;1.45;;
71806;SDS011;59655;42.590;23.364;2024-02-04T12:20:19;1.92;;;0.80;;
71806;SDS011;59655;42.590;23.364;2024-02-04T12:22:44;3.42;;;0.82;;
71806;SDS011;59655;42.590;23.364;2024-02-04T12:25:21;1.98;;;0.98;;
71806;SDS011;59655;42.590;23.364;2024-02-04T12:27:50;2.47;;;0.80;;
71806;SDS011;59655;42.590;23.364;2024-02-04T12:30:16;1.83;;;0.80;;
71806;SDS011;59655;42.590;23.364;2024-02-04T12:32:41;1.15;;;0.75;;
71806;SDS011;59655;42.590;23.364;2024-02-04T12:35:07;2.60;;;1.20;;
71806;SDS011;59655;42.590;23.364;2024-02-04T12:37:34;3.40;;;1.15;;
71806;SDS011;59655;42.590;23.364;2024-02-04T12:39:59;4.03;;;0.90;;
71806;SDS011;59655;42.590;23.364;2024-02-04T12:44:56;2.33;;;0.90;;
71806;SDS011;59655;42.590;23.364;2024-02-04T12:47:22;1.35;;;0.80;;
71806;SDS011;59655;42.590;23.364;2024-02-04T12:49:47;4.25;;;1.23;;
71806;SDS011;59655;42.590;23.364;2024-02-04T12:52:12;2.38;;;1.10;;
71806;SDS011;59655;42.590;23.364;2024-02-04T12:54:41;4.60;;;0.98;;
71806;SDS011;59655;42.590;23.364;2024-02-04T12:57:07;1.55;;;0.90;;
71806;SDS011;59655;42.590;23.364;2024-02-04T12:59:35;2.22;;;1.02;;
71806;SDS011;59655;42.590;23.364;2024-02-04T13:02:02;2.80;;;0.98;;
71806;SDS011;59655;42.590;23.364;2024-02-04T13:04:39;2.30;;;1.20;;
71806;SDS011;59655;42.590;23.364;2024-02-04T13:07:09;3.90;;;1.40;;
71806;SDS011;59655;42.590;23.364;2024-02-04T13:09:37;2.78;;;1.20;;
71806;SDS011;59655;42.590;23.364;2024-02-04T13:12:03;10.98;;;1.70;;
71806;SDS011;59655;42.590;23.364;2024-02-04T13:14:34;1.85;;;1.00;;
71806;SDS011;59655;42.590;23.364;2024-02-04T13:17:00;2.88;;;1.00;;
71806;SDS011;59655;42.590;23.364;2024-02-04T13:19:31;3.42;;;1.20;;
71806;SDS011;59655;42.590;23.364;2024-02-04T13:21:58;2.03;;;1.10;;
71806;SDS011;59655;42.590;23.364;2024-02-04T13:24:23;4.07;;;1.45;;
71806;SDS011;59655;42.590;23.364;2024-02-04T13:26:48;2.88;;;1.10;;
71806;SDS011;59655;42.590;23.364;2024-02-04T13:29:14;2.85;;;1.13;;
71806;SDS011;59655;42.590;23.364;2024-02-04T13:31:39;2.45;;;1.10;;
71806;SDS011;59655;42.590;23.364;2024-02-04T13:34:04;2.22;;;1.20;;
71806;SDS011;59655;42.590;23.364;2024-02-04T13:36:30;3.45;;;0.80;;
71806;SDS011;59655;42.590;23.364;2024-02-04T13:38:55;2.50;;;1.55;;
71806;SDS011;59655;42.590;23.364;2024-02-04T13:41:21;4.82;;;1.00;;
71806;SDS011;59655;42.590;23.364;2024-02-04T13:43:46;3.55;;;1.20;;
71806;SDS011;59655;42.590;23.364;2024-02-04T13:46:12;2.17;;;0.90;;
71806;SDS011;59655;42.590;23.364;2024-02-04T13:48:37;3.40;;;1.30;;
71806;SDS011;59655;42.590;23.364;2024-02-04T13:51:02;2.42;;;1.33;;
71806;SDS011;59655;42.590;23.364;2024-02-04T13:53:28;4.22;;;1.80;;
71806;SDS011;59655;42.590;23.364;2024-02-04T13:55:53;3.97;;;1.45;;
71806;SDS011;59655;42.590;23.364;2024-02-04T13:58:19;2.35;;;1.10;;
71806;SDS011;59655;42.590;23.364;2024-02-04T14:00:45;2.08;;;1.02;;
71806;SDS011;59655;42.590;23.364;2024-02-04T14:03:10;2.40;;;1.20;;
71806;SDS011;59655;42.590;23.364;2024-02-04T14:05:38;2.00;;;1.20;;
71806;SDS011;59655;42.590;23.364;2024-02-04T14:08:04;2.50;;;1.17;;
71806;SDS011;59655;42.590;23.364;2024-02-04T14:10:30;4.47;;;1.10;;
71806;SDS011;59655;42.590;23.364;2024-02-04T14:12:56;2.75;;;1.10;;
71806;SDS011;59655;42.590;23.364;2024-02-04T14:15:21;2.65;;;1.20;;
71806;SDS011;59655;42.590;23.364;2024-02-04T14:17:47;3.57;;;1.27;;
71806;SDS011;59655;42.590;23.364;2024-02-04T14:20:12;2.10;;;1.40;;
71806;SDS011;59655;42.590;23.364;2024-02-04T14:22:38;2.45;;;1.20;;
71806;SDS011;59655;42.590;23.364;2024-02-04T14:25:04;2.42;;;0.80;;
71806;SDS011;59655;42.590;23.364;2024-02-04T14:27:31;1.80;;;0.93;;
71806;SDS011;59655;42.590;23.364;2024-02-04T14:29:56;2.42;;;1.15;;
71806;SDS011;59655;42.590;23.364;2024-02-04T14:32:21;2.65;;;1.17;;
71806;SDS011;59655;42.590;23.364;2024-02-04T14:34:47;2.47;;;1.20;;
71806;SDS011;59655;42.590;23.364;2024-02-04T14:37:13;4.50;;;1.40;;
71806;SDS011;59655;42.590;23.364;2024-02-04T14:39:39;3.38;;;1.50;;
71806;SDS011;59655;42.590;23.364;2024-02-04T14:42:05;2.95;;;1.00;;
71806;SDS011;59655;42.590;23.364;2024-02-04T14:44:31;3.47;;;1.27;;